• Join FlightAware (Why Join?)
  • Login
  • US Flag 
06:59PM EST


 

Airport Tracker/Info


-or-


 

Live Flight TrackerFlight Track Log ✈ SWA525 ✈ 28-Apr-2013 ✈ KDAL - KMSY

Flight Track Log - Related Links

Times and Time Zones

All times are in EDT time to prevent confusion due to time zone crossing. See the SWA525 flight status page for this flight to view local times or setup timezone preferences in your user account.

Time Position Orientation Groundspeed Altitude Reporting Facility
EDT Latitude Longitude Course Direction KTS MPH feet Rate Location/Type
04:19PM 32.8167 -96.8000 121° Southeast 205 236 2,600  Level Dallas / Fort Worth TRACON
04:20PM 32.7667 -96.7500 140° Southeast 241 277 5,700 2,460 Climbing Dallas / Fort Worth TRACON
04:21PM 32.7517 -96.6206 98° East 276 318 9,000 1,980 Climbing Fort Worth Center
04:22PM 32.7572 -96.5117 86° East 281 323 10,900 1,980 Climbing Fort Worth Center
04:23PM 32.7583 -96.4081 89° East 327 376 13,100 2,580 Climbing Fort Worth Center
04:24PM 32.7782 -96.4718 102° East  Level FlightAware Approximate
04:24PM 32.7531 -96.2797 93° East 348 400 16,100  Level Fort Worth Center
04:25PM 32.7356 -96.1711 101° East 364 419 18,300 2,340 Climbing Fort Worth Center
04:26PM 32.7153 -96.0356 100° East 376 433 20,800 2,100 Climbing Fort Worth Center
04:27PM 32.6953 -95.9222 102° East 376 433 22,500 1,740 Climbing Fort Worth Center
04:28PM 32.6789 -95.7894 98° East 399 459 24,300 1,620 Climbing Fort Worth Center
04:29PM 32.6606 -95.6589 99° East 410 472 25,800 1,500 Climbing Fort Worth Center
04:30PM 32.6686 -95.5058 86° East 415 478 27,300 1,320 Climbing Fort Worth Center
04:31PM 32.6769 -95.3650 86° East 424 488 28,500 1,140 Climbing Fort Worth Center
04:32PM 32.6808 -95.2314 88° East 429 494 29,600 1,200 Climbing Fort Worth Center
04:33PM 32.6908 -95.0856 85° East 436 502 30,900 1,140 Climbing Fort Worth Center
04:34PM 32.7025 -94.9347 85° East 447 514 31,900 1,020 Climbing Fort Worth Center
04:35PM 32.7036 -94.7842 89° East 452 520 33,000 1,140 Climbing Fort Worth Center
04:36PM 32.6589 -94.6400 110° East 452 520 34,200 960 Climbing Fort Worth Center
04:37PM 32.6097 -94.4983 112° Southeast 447 514 35,000 360 Climbing Fort Worth Center
04:38PM 32.5625 -94.3569 112° Southeast 458 527 35,000  Level Fort Worth Center
04:39PM 32.5131 -94.2108 112° Southeast 469 540 35,000  Level Fort Worth Center
04:40PM 32.4611 -94.0625 113° Southeast 474 545 35,000  Level Fort Worth Center
04:41PM 32.4111 -93.9167 112° Southeast 474 545 35,000  Level Fort Worth Center
04:42PM 32.3611 -93.7686 112° Southeast 474 545 35,000  Level Fort Worth Center
04:45PM 32.2467 -93.4508 113° Southeast 477 549 35,000  Level Houston Center
04:46PM 32.1958 -93.3028 112° Southeast 483 556 35,000  Level Houston Center
04:47PM 32.1331 -93.1253 113° Southeast 486 559 35,000  Level Houston Center
04:48PM 32.0811 -92.9769 112° Southeast 489 563 35,000  Level Houston Center
04:49PM 32.0336 -92.8431 113° Southeast 493 567 35,000  Level Houston Center
04:50PM 31.9783 -92.6953 114° Southeast 493 567 35,000  Level Houston Center
04:51PM 31.8636 -92.5728 138° Southeast 463 533 35,000  Level Houston Center
04:52PM 31.7619 -92.4778 142° Southeast 464 534 35,000  Level Houston Center
04:53PM 31.6625 -92.3836 141° Southeast 462 532 35,000  Level Houston Center
04:54PM 31.5631 -92.2897 141° Southeast 459 528 35,000  Level Houston Center
04:55PM 31.4619 -92.1950 141° Southeast 463 533 35,000  Level Houston Center
04:56PM 31.3603 -92.1008 142° Southeast 465 535 35,000  Level Houston Center
04:57PM 31.2425 -91.9903 141° Southeast 469 540 35,000 -540 Level Houston Center
04:58PM 31.1414 -91.8958 141° Southeast 466 536 34,000 -1,560 Descending Houston Center
04:59PM 31.0450 -91.7950 138° Southeast 467 537 31,800 -2,460 Descending Houston Center
05:00PM 30.9603 -91.6783 130° Southeast 470 541 29,000 -2,460 Descending Houston Center
05:01PM 30.8608 -91.5422 130° Southeast 460 529 26,800 -2,520 Descending Houston Center
05:02PM 30.7931 -91.4275 124° Southeast 440 506 23,900 -2,760 Descending Houston Center
05:03PM 30.7403 -91.3192 120° Southeast 430 495 21,100 -2,640 Descending Houston Center
05:04PM 30.6747 -91.1819 119° Southeast 408 470 18,400 -2,340 Descending Houston Center
05:05PM 30.6247 -91.0769 119° Southeast 376 433 16,300 -2,100 Descending Houston Center
05:06PM 30.5808 -90.9756 117° Southeast 339 390 14,300 -1,920 Descending Houston Center
05:07PM 30.5544 -90.9186 118° Southeast 325 374 13,300 -1,560 Descending Houston Center
05:07PM 30.5356 -90.8911 129° Southeast 315 362 12,600 -1,800 Descending Houston Center
05:08PM 30.5044 -90.8431 127° Southeast 294 338 11,500 -1,680 Descending Houston Center
05:08PM 30.4872 -90.8153 126° Southeast 295 339 10,900 -1,800 Descending Houston Center
05:09PM 30.4486 -90.7822 144° Southeast 287 330 9,700 -1,860 Descending Houston Center
05:09PM 30.4250 -90.7647 147° Southeast 272 313 9,000 -1,800 Descending Houston Center
05:10PM 30.3806 -90.7389 153° Southeast 274 315 7,900 -1,980 Descending Houston Center
05:11PM 30.3431 -90.7125 149° Southeast 279 321 7,000 -1,620 Descending Houston Center
05:11PM 30.3039 -90.6861 150° Southeast 278 320 6,100 -1,560 Descending Houston Center
05:12PM 30.2767 -90.6706 154° Southeast 276 318 5,400 -1,200 Descending Houston Center
05:12PM 30.2467 -90.6497 149° Southeast 276 318 5,000 -540 Descending Houston Center
05:13PM 30.2128 -90.6231 146° Southeast 277 319 4,900  Descending Houston Center
05:13PM 30.1842 -90.5869 133° Southeast 260 299 5,000  Climbing Houston Center
05:14PM 30.1656 -90.5653 135° Southeast 258 297 4,900 -540 Descending Houston Center
05:14PM 30.1389 -90.5333 134° Southeast 232 267 4,500 -900 Descending Houston Center
05:15PM 30.1217 -90.5139 136° Southeast 237 273 4,000 -1,620 Descending Houston Center
05:15PM 30.0956 -90.4822 134° Southeast 221 254 2,900 -1,800 Descending Houston Center
05:16PM 30.0675 -90.4503 135° Southeast 231 266 2,200 -840 Descending Houston Center
05:16PM 30.0481 -90.4286 136° Southeast 239 275 2,100 -420 Descending Houston Center
05:17PM 30.0253 -90.3967 129° Southeast 230 265 1,800 -840 Descending Houston Center
05:17PM 30.0172 -90.3675 108° East 205 236 1,300 -900 Descending Houston Center
05:18PM 30.0114 -90.3403 104° East 203 234 900 -660 Descending Houston Center
05:18PM 30.0050 -90.3153 106° East 141 162 600 -720 Descending Houston Center
05:19PM 30.0011 -90.2961 103° East 171 197 200 -360 Descending Houston Center
05:20PM 29.9897 -90.2528 107° East 166 191 100 -120 Descending Houston Center
05:22PM 29.9833 -90.2500 101° East  Level FlightAware Approximate
05:29PM 29.9934 -90.2580 101° East  Level Estimated
05:30PM 29.9934 -90.2580 101° East  Level Estimated